sensor_id;sensor_type;location;lat;lon;timestamp;P1;durP1;ratioP1;P2;durP2;ratioP2
5006;SDS011;2522;50.972;11.046;2022-10-31T04:30:42;10.53;;;4.53;;
5006;SDS011;2522;50.972;11.046;2022-10-31T04:33:09;12.70;;;4.43;;
5006;SDS011;2522;50.972;11.046;2022-10-31T04:35:36;12.50;;;4.40;;
5006;SDS011;2522;50.972;11.046;2022-10-31T04:38:03;10.97;;;6.10;;
5006;SDS011;2522;50.972;11.046;2022-10-31T04:40:30;11.47;;;4.87;;
5006;SDS011;2522;50.972;11.046;2022-10-31T04:42:56;12.97;;;5.00;;
5006;SDS011;2522;50.972;11.046;2022-10-31T04:45:23;10.97;;;4.70;;
5006;SDS011;2522;50.972;11.046;2022-10-31T04:47:52;8.63;;;3.97;;
5006;SDS011;2522;50.972;11.046;2022-10-31T04:50:19;9.70;;;5.13;;
5006;SDS011;2522;50.972;11.046;2022-10-31T04:52:46;13.80;;;5.30;;
5006;SDS011;2522;50.972;11.046;2022-10-31T04:55:13;11.00;;;5.10;;
5006;SDS011;2522;50.972;11.046;2022-10-31T04:57:41;7.60;;;4.50;;
5006;SDS011;2522;50.972;11.046;2022-10-31T05:00:08;9.10;;;3.93;;
5006;SDS011;2522;50.972;11.046;2022-10-31T05:02:42;15.30;;;4.50;;
5006;SDS011;2522;50.972;11.046;2022-10-31T05:05:11;10.83;;;4.20;;
5006;SDS011;2522;50.972;11.046;2022-10-31T05:07:38;11.30;;;3.83;;
5006;SDS011;2522;50.972;11.046;2022-10-31T05:10:07;10.07;;;4.63;;
5006;SDS011;2522;50.972;11.046;2022-10-31T05:12:35;9.40;;;4.10;;
5006;SDS011;2522;50.972;11.046;2022-10-31T05:15:03;7.87;;;4.47;;
5006;SDS011;2522;50.972;11.046;2022-10-31T05:17:31;12.77;;;4.50;;
5006;SDS011;2522;50.972;11.046;2022-10-31T05:19:58;12.93;;;5.53;;
5006;SDS011;2522;50.972;11.046;2022-10-31T05:22:26;10.57;;;4.77;;
5006;SDS011;2522;50.972;11.046;2022-10-31T05:24:53;9.47;;;4.40;;
5006;SDS011;2522;50.972;11.046;2022-10-31T05:27:20;9.53;;;4.67;;
5006;SDS011;2522;50.972;11.046;2022-10-31T05:29:47;6.73;;;4.50;;
5006;SDS011;2522;50.972;11.046;2022-10-31T05:32:14;8.93;;;4.33;;
5006;SDS011;2522;50.972;11.046;2022-10-31T05:34:41;13.57;;;4.23;;
5006;SDS011;2522;50.972;11.046;2022-10-31T05:37:08;18.27;;;4.27;;
5006;SDS011;2522;50.972;11.046;2022-10-31T05:39:36;7.43;;;4.10;;
5006;SDS011;2522;50.972;11.046;2022-10-31T05:42:03;11.90;;;4.10;;
5006;SDS011;2522;50.972;11.046;2022-10-31T05:44:30;11.13;;;5.03;;
5006;SDS011;2522;50.972;11.046;2022-10-31T05:46:57;13.40;;;4.70;;
5006;SDS011;2522;50.972;11.046;2022-10-31T05:49:24;11.67;;;4.70;;
5006;SDS011;2522;50.972;11.046;2022-10-31T05:51:51;10.67;;;4.53;;
5006;SDS011;2522;50.972;11.046;2022-10-31T05:54:17;7.97;;;4.40;;
5006;SDS011;2522;50.972;11.046;2022-10-31T05:56:46;7.47;;;3.43;;
5006;SDS011;2522;50.972;11.046;2022-10-31T05:59:13;10.73;;;5.00;;
5006;SDS011;2522;50.972;11.046;2022-10-31T06:01:39;10.37;;;4.30;;
5006;SDS011;2522;50.972;11.046;2022-10-31T06:04:07;10.00;;;4.37;;
5006;SDS011;2522;50.972;11.046;2022-10-31T06:06:33;11.50;;;4.30;;
5006;SDS011;2522;50.972;11.046;2022-10-31T06:09:00;12.77;;;4.07;;
5006;SDS011;2522;50.972;11.046;2022-10-31T06:11:27;9.03;;;4.40;;
5006;SDS011;2522;50.972;11.046;2022-10-31T06:13:55;8.63;;;4.27;;
5006;SDS011;2522;50.972;11.046;2022-10-31T06:16:22;7.83;;;4.50;;
5006;SDS011;2522;50.972;11.046;2022-10-31T06:18:49;9.10;;;3.60;;
5006;SDS011;2522;50.972;11.046;2022-10-31T06:21:16;8.70;;;4.20;;
5006;SDS011;2522;50.972;11.046;2022-10-31T06:23:43;11.47;;;4.33;;
5006;SDS011;2522;50.972;11.046;2022-10-31T06:26:10;16.23;;;4.90;;
5006;SDS011;2522;50.972;11.046;2022-10-31T06:28:37;7.00;;;3.73;;
5006;SDS011;2522;50.972;11.046;2022-10-31T06:31:05;10.60;;;5.23;;
5006;SDS011;2522;50.972;11.046;2022-10-31T06:33:33;10.90;;;4.80;;
5006;SDS011;2522;50.972;11.046;2022-10-31T06:36:00;7.57;;;4.03;;
5006;SDS011;2522;50.972;11.046;2022-10-31T06:38:28;10.77;;;4.03;;
5006;SDS011;2522;50.972;11.046;2022-10-31T06:40:55;12.53;;;4.53;;
5006;SDS011;2522;50.972;11.046;2022-10-31T06:43:22;12.27;;;5.60;;
5006;SDS011;2522;50.972;11.046;2022-10-31T06:45:49;10.53;;;4.60;;
5006;SDS011;2522;50.972;11.046;2022-10-31T06:48:17;7.63;;;4.80;;
5006;SDS011;2522;50.972;11.046;2022-10-31T06:50:44;9.50;;;3.90;;
5006;SDS011;2522;50.972;11.046;2022-10-31T06:53:11;11.80;;;5.03;;
5006;SDS011;2522;50.972;11.046;2022-10-31T06:55:39;8.97;;;5.23;;
5006;SDS011;2522;50.972;11.046;2022-10-31T06:58:10;11.70;;;5.07;;
5006;SDS011;2522;50.972;11.046;2022-10-31T07:00:37;10.90;;;4.67;;
5006;SDS011;2522;50.972;11.046;2022-10-31T07:03:05;12.17;;;4.50;;
5006;SDS011;2522;50.972;11.046;2022-10-31T07:05:34;10.70;;;4.83;;
5006;SDS011;2522;50.972;11.046;2022-10-31T07:08:02;9.63;;;4.53;;
5006;SDS011;2522;50.972;11.046;2022-10-31T07:10:31;10.43;;;5.03;;
5006;SDS011;2522;50.972;11.046;2022-10-31T07:12:59;10.57;;;4.17;;
5006;SDS011;2522;50.972;11.046;2022-10-31T07:15:28;10.63;;;4.53;;
5006;SDS011;2522;50.972;11.046;2022-10-31T07:17:58;7.90;;;4.30;;
5006;SDS011;2522;50.972;11.046;2022-10-31T07:20:26;8.40;;;4.23;;
5006;SDS011;2522;50.972;11.046;2022-10-31T07:22:54;10.77;;;4.40;;
5006;SDS011;2522;50.972;11.046;2022-10-31T07:25:21;10.53;;;4.10;;
5006;SDS011;2522;50.972;11.046;2022-10-31T07:27:49;14.90;;;4.67;;
5006;SDS011;2522;50.972;11.046;2022-10-31T07:30:16;10.47;;;4.40;;
5006;SDS011;2522;50.972;11.046;2022-10-31T07:32:45;19.17;;;4.73;;
5006;SDS011;2522;50.972;11.046;2022-10-31T07:35:13;10.80;;;4.80;;
5006;SDS011;2522;50.972;11.046;2022-10-31T07:37:41;13.93;;;4.63;;
5006;SDS011;2522;50.972;11.046;2022-10-31T07:40:18;13.10;;;5.10;;
5006;SDS011;2522;50.972;11.046;2022-10-31T07:42:46;11.00;;;5.10;;
5006;SDS011;2522;50.972;11.046;2022-10-31T07:45:15;14.83;;;6.07;;
5006;SDS011;2522;50.972;11.046;2022-10-31T07:47:43;14.83;;;4.80;;
5006;SDS011;2522;50.972;11.046;2022-10-31T07:50:12;9.70;;;5.00;;
5006;SDS011;2522;50.972;11.046;2022-10-31T07:52:41;9.40;;;4.60;;
5006;SDS011;2522;50.972;11.046;2022-10-31T07:55:09;10.40;;;4.30;;
5006;SDS011;2522;50.972;11.046;2022-10-31T07:57:38;8.10;;;4.63;;
5006;SDS011;2522;50.972;11.046;2022-10-31T08:00:11;18.10;;;5.10;;
5006;SDS011;2522;50.972;11.046;2022-10-31T08:02:38;10.70;;;4.10;;
5006;SDS011;2522;50.972;11.046;2022-10-31T08:05:05;14.90;;;5.13;;
5006;SDS011;2522;50.972;11.046;2022-10-31T08:07:35;10.10;;;4.60;;
5006;SDS011;2522;50.972;11.046;2022-10-31T08:10:03;8.87;;;4.53;;
5006;SDS011;2522;50.972;11.046;2022-10-31T08:12:31;11.07;;;4.60;;
5006;SDS011;2522;50.972;11.046;2022-10-31T08:14:59;6.40;;;4.20;;
5006;SDS011;2522;50.972;11.046;2022-10-31T08:17:27;13.87;;;4.63;;
5006;SDS011;2522;50.972;11.046;2022-10-31T08:19:54;6.50;;;4.20;;
5006;SDS011;2522;50.972;11.046;2022-10-31T08:22:21;9.63;;;4.63;;
5006;SDS011;2522;50.972;11.046;2022-10-31T08:24:48;13.50;;;4.53;;
5006;SDS011;2522;50.972;11.046;2022-10-31T08:27:15;8.03;;;4.60;;
5006;SDS011;2522;50.972;11.046;2022-10-31T08:29:42;14.90;;;4.70;;
5006;SDS011;2522;50.972;11.046;2022-10-31T08:32:10;10.37;;;5.00;;
5006;SDS011;2522;50.972;11.046;2022-10-31T08:34:37;11.00;;;4.57;;
5006;SDS011;2522;50.972;11.046;2022-10-31T08:37:04;9.10;;;4.63;;
5006;SDS011;2522;50.972;11.046;2022-10-31T08:39:31;11.30;;;4.50;;
5006;SDS011;2522;50.972;11.046;2022-10-31T08:41:58;9.90;;;4.60;;
5006;SDS011;2522;50.972;11.046;2022-10-31T08:44:25;17.10;;;5.10;;
5006;SDS011;2522;50.972;11.046;2022-10-31T08:46:52;10.63;;;4.53;;
5006;SDS011;2522;50.972;11.046;2022-10-31T08:49:21;11.00;;;5.20;;
5006;SDS011;2522;50.972;11.046;2022-10-31T08:51:48;10.80;;;4.57;;
5006;SDS011;2522;50.972;11.046;2022-10-31T08:54:15;11.40;;;5.37;;
5006;SDS011;2522;50.972;11.046;2022-10-31T08:56:42;7.90;;;4.50;;
5006;SDS011;2522;50.972;11.046;2022-10-31T08:59:09;12.87;;;4.90;;
5006;SDS011;2522;50.972;11.046;2022-10-31T14:49:48;20.67;;;8.68;;
5006;SDS011;2522;50.972;11.046;2022-10-31T14:52:29;20.00;;;8.50;;
5006;SDS011;2522;50.972;11.046;2022-10-31T14:54:57;19.17;;;8.67;;
5006;SDS011;2522;50.972;11.046;2022-10-31T14:57:29;22.47;;;9.90;;
5006;SDS011;2522;50.972;11.046;2022-10-31T15:00:03;17.50;;;8.80;;
5006;SDS011;2522;50.972;11.046;2022-10-31T15:02:32;25.00;;;8.77;;
5006;SDS011;2522;50.972;11.046;2022-10-31T15:05:03;23.20;;;9.73;;
5006;SDS011;2522;50.972;11.046;2022-10-31T15:07:34;26.77;;;11.00;;
5006;SDS011;2522;50.972;11.046;2022-10-31T15:10:02;26.13;;;10.30;;
5006;SDS011;2522;50.972;11.046;2022-10-31T15:12:33;23.93;;;10.80;;
5006;SDS011;2522;50.972;11.046;2022-10-31T15:15:13;22.13;;;10.60;;
5006;SDS011;2522;50.972;11.046;2022-10-31T15:17:45;24.03;;;11.53;;
5006;SDS011;2522;50.972;11.046;2022-10-31T15:20:17;25.50;;;10.97;;
5006;SDS011;2522;50.972;11.046;2022-10-31T15:22:46;24.40;;;12.03;;
5006;SDS011;2522;50.972;11.046;2022-10-31T15:25:16;31.20;;;11.50;;
5006;SDS011;2522;50.972;11.046;2022-10-31T15:27:47;27.60;;;11.30;;
5006;SDS011;2522;50.972;11.046;2022-10-31T15:30:16;25.43;;;11.57;;
5006;SDS011;2522;50.972;11.046;2022-10-31T15:32:44;39.87;;;13.20;;
5006;SDS011;2522;50.972;11.046;2022-10-31T15:35:18;36.83;;;14.23;;
5006;SDS011;2522;50.972;11.046;2022-10-31T15:37:49;28.50;;;11.70;;
5006;SDS011;2522;50.972;11.046;2022-10-31T15:40:17;31.77;;;13.90;;
5006;SDS011;2522;50.972;11.046;2022-10-31T15:42:49;33.17;;;12.27;;
5006;SDS011;2522;50.972;11.046;2022-10-31T15:45:19;32.87;;;11.80;;
5006;SDS011;2522;50.972;11.046;2022-10-31T15:47:50;31.77;;;13.83;;
5006;SDS011;2522;50.972;11.046;2022-10-31T15:50:22;34.57;;;14.10;;
5006;SDS011;2522;50.972;11.046;2022-10-31T15:52:53;26.63;;;13.10;;
5006;SDS011;2522;50.972;11.046;2022-10-31T15:55:21;31.63;;;13.80;;
5006;SDS011;2522;50.972;11.046;2022-10-31T15:57:52;30.97;;;13.87;;
5006;SDS011;2522;50.972;11.046;2022-10-31T16:00:23;37.33;;;15.40;;
5006;SDS011;2522;50.972;11.046;2022-10-31T16:05:45;33.77;;;13.20;;
5006;SDS011;2522;50.972;11.046;2022-10-31T16:08:22;37.70;;;15.07;;
5006;SDS011;2522;50.972;11.046;2022-10-31T16:11:00;35.73;;;16.17;;
5006;SDS011;2522;50.972;11.046;2022-10-31T16:13:55;36.07;;;16.20;;
5006;SDS011;2522;50.972;11.046;2022-10-31T16:16:25;36.57;;;14.77;;
5006;SDS011;2522;50.972;11.046;2022-10-31T16:18:54;35.37;;;15.60;;
5006;SDS011;2522;50.972;11.046;2022-10-31T16:21:23;41.47;;;15.43;;
5006;SDS011;2522;50.972;11.046;2022-10-31T16:23:55;46.77;;;15.83;;
5006;SDS011;2522;50.972;11.046;2022-10-31T16:26:26;35.10;;;16.10;;
5006;SDS011;2522;50.972;11.046;2022-10-31T16:28:55;41.60;;;17.47;;
5006;SDS011;2522;50.972;11.046;2022-10-31T16:31:28;44.20;;;16.07;;
5006;SDS011;2522;50.972;11.046;2022-10-31T16:34:04;42.93;;;18.10;;
5006;SDS011;2522;50.972;11.046;2022-10-31T16:36:36;41.73;;;16.20;;
5006;SDS011;2522;50.972;11.046;2022-10-31T16:39:05;37.63;;;16.30;;
5006;SDS011;2522;50.972;11.046;2022-10-31T16:41:33;39.07;;;16.10;;
5006;SDS011;2522;50.972;11.046;2022-10-31T16:44:06;40.07;;;17.90;;
5006;SDS011;2522;50.972;11.046;2022-10-31T16:46:41;36.43;;;17.83;;
5006;SDS011;2522;50.972;11.046;2022-10-31T16:49:08;45.33;;;18.97;;
5006;SDS011;2522;50.972;11.046;2022-10-31T16:51:35;37.00;;;17.27;;
5006;SDS011;2522;50.972;11.046;2022-10-31T16:54:04;41.50;;;17.20;;
5006;SDS011;2522;50.972;11.046;2022-10-31T16:56:31;38.43;;;18.87;;
5006;SDS011;2522;50.972;11.046;2022-10-31T16:59:00;47.90;;;19.77;;
5006;SDS011;2522;50.972;11.046;2022-10-31T17:01:31;44.10;;;19.20;;
5006;SDS011;2522;50.972;11.046;2022-10-31T17:04:00;42.33;;;19.70;;
5006;SDS011;2522;50.972;11.046;2022-10-31T17:06:27;42.93;;;19.50;;
5006;SDS011;2522;50.972;11.046;2022-10-31T17:08:54;43.10;;;17.47;;
5006;SDS011;2522;50.972;11.046;2022-10-31T17:11:21;45.67;;;18.67;;
5006;SDS011;2522;50.972;11.046;2022-10-31T17:13:50;59.20;;;18.80;;
5006;SDS011;2522;50.972;11.046;2022-10-31T17:16:20;39.73;;;18.70;;
5006;SDS011;2522;50.972;11.046;2022-10-31T17:18:49;56.50;;;19.17;;
5006;SDS011;2522;50.972;11.046;2022-10-31T17:21:17;44.37;;;18.33;;
5006;SDS011;2522;50.972;11.046;2022-10-31T17:23:47;38.83;;;18.40;;
5006;SDS011;2522;50.972;11.046;2022-10-31T17:26:14;37.67;;;19.10;;
5006;SDS011;2522;50.972;11.046;2022-10-31T17:28:41;39.40;;;19.53;;
5006;SDS011;2522;50.972;11.046;2022-10-31T17:31:10;57.53;;;24.20;;
5006;SDS011;2522;50.972;11.046;2022-10-31T17:33:45;42.20;;;18.13;;
5006;SDS011;2522;50.972;11.046;2022-10-31T17:36:13;54.97;;;21.50;;
5006;SDS011;2522;50.972;11.046;2022-10-31T17:38:40;55.33;;;21.20;;
5006;SDS011;2522;50.972;11.046;2022-10-31T17:41:07;42.50;;;20.87;;
5006;SDS011;2522;50.972;11.046;2022-10-31T17:43:34;49.63;;;22.10;;
5006;SDS011;2522;50.972;11.046;2022-10-31T17:46:01;50.20;;;20.30;;
5006;SDS011;2522;50.972;11.046;2022-10-31T17:48:28;49.50;;;20.73;;
5006;SDS011;2522;50.972;11.046;2022-10-31T17:50:58;54.50;;;22.33;;
5006;SDS011;2522;50.972;11.046;2022-10-31T17:53:28;51.53;;;21.30;;
5006;SDS011;2522;50.972;11.046;2022-10-31T17:55:59;55.63;;;21.93;;
5006;SDS011;2522;50.972;11.046;2022-10-31T17:58:27;50.20;;;20.20;;
5006;SDS011;2522;50.972;11.046;2022-10-31T18:00:54;36.33;;;17.43;;
5006;SDS011;2522;50.972;11.046;2022-10-31T18:03:21;46.93;;;18.47;;
5006;SDS011;2522;50.972;11.046;2022-10-31T18:05:51;44.30;;;19.47;;
5006;SDS011;2522;50.972;11.046;2022-10-31T18:08:22;48.83;;;18.77;;
5006;SDS011;2522;50.972;11.046;2022-10-31T18:10:52;46.87;;;19.03;;
5006;SDS011;2522;50.972;11.046;2022-10-31T18:13:24;52.87;;;19.47;;
5006;SDS011;2522;50.972;11.046;2022-10-31T18:15:51;47.03;;;19.00;;
5006;SDS011;2522;50.972;11.046;2022-10-31T18:18:21;49.70;;;20.40;;
5006;SDS011;2522;50.972;11.046;2022-10-31T18:20:48;46.90;;;20.27;;
5006;SDS011;2522;50.972;11.046;2022-10-31T18:23:15;46.70;;;19.77;;
5006;SDS011;2522;50.972;11.046;2022-10-31T18:25:43;52.37;;;21.37;;
5006;SDS011;2522;50.972;11.046;2022-10-31T18:28:25;47.23;;;19.30;;
5006;SDS011;2522;50.972;11.046;2022-10-31T18:30:52;43.77;;;20.20;;
5006;SDS011;2522;50.972;11.046;2022-10-31T18:33:20;51.50;;;21.10;;
5006;SDS011;2522;50.972;11.046;2022-10-31T18:35:46;58.80;;;23.70;;
5006;SDS011;2522;50.972;11.046;2022-10-31T18:38:16;43.20;;;20.23;;
5006;SDS011;2522;50.972;11.046;2022-10-31T18:40:46;45.00;;;22.17;;
5006;SDS011;2522;50.972;11.046;2022-10-31T18:43:13;47.03;;;20.83;;
5006;SDS011;2522;50.972;11.046;2022-10-31T18:45:41;46.43;;;21.70;;
5006;SDS011;2522;50.972;11.046;2022-10-31T18:48:11;49.87;;;20.93;;
5006;SDS011;2522;50.972;11.046;2022-10-31T18:50:41;37.37;;;19.57;;
5006;SDS011;2522;50.972;11.046;2022-10-31T18:53:08;45.83;;;20.53;;
5006;SDS011;2522;50.972;11.046;2022-10-31T18:55:37;41.47;;;19.50;;
5006;SDS011;2522;50.972;11.046;2022-10-31T18:58:07;41.47;;;20.27;;
5006;SDS011;2522;50.972;11.046;2022-10-31T19:00:35;51.00;;;23.20;;
5006;SDS011;2522;50.972;11.046;2022-10-31T19:03:05;46.43;;;21.40;;
5006;SDS011;2522;50.972;11.046;2022-10-31T19:05:32;54.33;;;21.77;;
5006;SDS011;2522;50.972;11.046;2022-10-31T19:07:59;54.77;;;21.77;;
5006;SDS011;2522;50.972;11.046;2022-10-31T19:10:25;52.77;;;22.53;;
5006;SDS011;2522;50.972;11.046;2022-10-31T19:12:52;60.77;;;24.00;;
5006;SDS011;2522;50.972;11.046;2022-10-31T19:15:19;39.03;;;19.53;;
5006;SDS011;2522;50.972;11.046;2022-10-31T19:17:46;44.20;;;20.47;;
5006;SDS011;2522;50.972;11.046;2022-10-31T19:20:15;48.93;;;22.70;;
5006;SDS011;2522;50.972;11.046;2022-10-31T19:22:42;51.80;;;23.70;;
5006;SDS011;2522;50.972;11.046;2022-10-31T19:25:09;52.27;;;25.50;;
5006;SDS011;2522;50.972;11.046;2022-10-31T19:27:36;48.73;;;21.47;;
5006;SDS011;2522;50.972;11.046;2022-10-31T19:30:04;46.20;;;20.40;;
5006;SDS011;2522;50.972;11.046;2022-10-31T19:32:34;40.93;;;21.20;;
5006;SDS011;2522;50.972;11.046;2022-10-31T19:35:02;42.00;;;22.10;;
5006;SDS011;2522;50.972;11.046;2022-10-31T19:37:34;43.57;;;21.40;;
5006;SDS011;2522;50.972;11.046;2022-10-31T19:40:02;58.50;;;22.77;;
5006;SDS011;2522;50.972;11.046;2022-10-31T19:42:30;54.70;;;23.67;;
5006;SDS011;2522;50.972;11.046;2022-10-31T19:44:57;47.93;;;22.10;;
5006;SDS011;2522;50.972;11.046;2022-10-31T19:47:24;48.13;;;22.60;;
5006;SDS011;2522;50.972;11.046;2022-10-31T19:49:51;48.57;;;23.70;;
5006;SDS011;2522;50.972;11.046;2022-10-31T19:52:18;51.13;;;22.80;;
5006;SDS011;2522;50.972;11.046;2022-10-31T19:54:46;47.67;;;20.60;;
5006;SDS011;2522;50.972;11.046;2022-10-31T19:57:14;65.83;;;24.17;;
5006;SDS011;2522;50.972;11.046;2022-10-31T19:59:41;52.13;;;21.80;;
5006;SDS011;2522;50.972;11.046;2022-10-31T20:02:08;48.13;;;20.97;;
5006;SDS011;2522;50.972;11.046;2022-10-31T20:04:43;51.40;;;22.63;;
5006;SDS011;2522;50.972;11.046;2022-10-31T20:07:11;49.80;;;22.47;;
5006;SDS011;2522;50.972;11.046;2022-10-31T20:09:38;45.00;;;18.37;;
5006;SDS011;2522;50.972;11.046;2022-10-31T20:12:07;43.23;;;19.43;;
5006;SDS011;2522;50.972;11.046;2022-10-31T20:14:34;46.03;;;20.10;;
5006;SDS011;2522;50.972;11.046;2022-10-31T20:17:01;42.30;;;21.90;;
5006;SDS011;2522;50.972;11.046;2022-10-31T20:19:28;46.07;;;21.77;;
5006;SDS011;2522;50.972;11.046;2022-10-31T20:21:55;48.17;;;20.40;;
5006;SDS011;2522;50.972;11.046;2022-10-31T20:24:23;44.00;;;21.93;;
5006;SDS011;2522;50.972;11.046;2022-10-31T20:26:50;44.43;;;20.53;;
5006;SDS011;2522;50.972;11.046;2022-10-31T20:29:18;45.53;;;19.83;;
5006;SDS011;2522;50.972;11.046;2022-10-31T20:31:46;42.47;;;22.10;;
5006;SDS011;2522;50.972;11.046;2022-10-31T20:34:13;43.83;;;20.70;;
5006;SDS011;2522;50.972;11.046;2022-10-31T20:36:43;48.13;;;24.23;;
5006;SDS011;2522;50.972;11.046;2022-10-31T20:39:11;45.37;;;21.07;;
5006;SDS011;2522;50.972;11.046;2022-10-31T20:41:38;38.20;;;20.77;;
5006;SDS011;2522;50.972;11.046;2022-10-31T20:44:05;47.70;;;20.30;;
5006;SDS011;2522;50.972;11.046;2022-10-31T20:46:34;39.20;;;19.90;;
5006;SDS011;2522;50.972;11.046;2022-10-31T20:49:01;45.37;;;19.90;;
5006;SDS011;2522;50.972;11.046;2022-10-31T20:51:28;37.63;;;19.50;;
5006;SDS011;2522;50.972;11.046;2022-10-31T20:53:56;41.30;;;19.10;;
5006;SDS011;2522;50.972;11.046;2022-10-31T20:56:24;37.80;;;19.57;;
5006;SDS011;2522;50.972;11.046;2022-10-31T20:58:53;40.37;;;19.27;;
5006;SDS011;2522;50.972;11.046;2022-10-31T21:01:21;48.57;;;19.80;;
5006;SDS011;2522;50.972;11.046;2022-10-31T21:03:51;40.13;;;18.60;;
5006;SDS011;2522;50.972;11.046;2022-10-31T21:06:19;47.63;;;19.00;;
5006;SDS011;2522;50.972;11.046;2022-10-31T21:08:50;43.07;;;21.00;;
5006;SDS011;2522;50.972;11.046;2022-10-31T21:11:18;45.53;;;18.70;;
5006;SDS011;2522;50.972;11.046;2022-10-31T21:13:46;40.63;;;20.40;;
5006;SDS011;2522;50.972;11.046;2022-10-31T21:16:15;44.90;;;20.20;;
5006;SDS011;2522;50.972;11.046;2022-10-31T21:18:44;32.90;;;17.77;;
5006;SDS011;2522;50.972;11.046;2022-10-31T21:21:15;41.23;;;19.10;;
5006;SDS011;2522;50.972;11.046;2022-10-31T21:23:43;40.43;;;19.17;;
5006;SDS011;2522;50.972;11.046;2022-10-31T21:26:12;44.97;;;19.00;;
5006;SDS011;2522;50.972;11.046;2022-10-31T21:28:41;32.93;;;17.87;;
5006;SDS011;2522;50.972;11.046;2022-10-31T21:31:09;43.80;;;18.67;;
5006;SDS011;2522;50.972;11.046;2022-10-31T21:33:37;42.20;;;17.73;;
5006;SDS011;2522;50.972;11.046;2022-10-31T21:36:04;36.93;;;17.67;;
5006;SDS011;2522;50.972;11.046;2022-10-31T21:38:34;32.23;;;15.50;;
5006;SDS011;2522;50.972;11.046;2022-10-31T21:41:02;33.20;;;17.13;;
5006;SDS011;2522;50.972;11.046;2022-10-31T21:43:30;44.83;;;19.70;;
5006;SDS011;2522;50.972;11.046;2022-10-31T21:46:02;45.33;;;19.67;;
5006;SDS011;2522;50.972;11.046;2022-10-31T21:48:30;35.87;;;17.30;;
5006;SDS011;2522;50.972;11.046;2022-10-31T21:51:00;42.50;;;17.30;;
5006;SDS011;2522;50.972;11.046;2022-10-31T21:53:28;39.70;;;17.83;;
5006;SDS011;2522;50.972;11.046;2022-10-31T21:56:14;44.07;;;20.07;;
5006;SDS011;2522;50.972;11.046;2022-10-31T21:58:41;40.80;;;18.70;;
